PWSweather.com
Personal Weather Stations
Station Observations
KOHAVON11
Long Road Station, Avon, OH 44011

Long Road StationAvon, OH 44011

Lat: 41.437, Lon: -82.0477

Elevation: 686

Station Type: Davis Vantage Pro2

http://www.avon-weather.com

High Low Average
Temperature 39.4°F4.1°C 25.1°F-3.8°C 32.1°F0.1°C
Dew Point 24.0°F-4.4°C 13.1°F-10.5°C 17.7°F-7.9°C
Winds 23.0 mph 37.0 kmh 1.0 mph 1.6 kmh 9.0 mph SW14.5 kmh SW
Wind Gusts 36.0 mph57.9 kmh 10.0 mph16.1 kmh 19.0 mph30.6 kmh
Humidity 62% 49% 56%
Pressure 30.08 in1018.6 mb 29.85 in1010.8 mb -
Precipitation 0.00 in0.0 mm - -
Hour Temp Dew Point Humidity Winds Wind Gusts Pressure Precip Precip Rate Daily Precip Total
12:03 AM 28.2°F-2.1°C 14.7°F-9.6°C 57% 6.0 mph SW9.7 kmh SW 13.0 mph20.9 kmh 30.07 in1018.3 mb 0.00 in0.0 mm 0.00 in0.0 mm 0.00 in0.0 mm
12:08 AM 28.3°F-2.1°C 14.8°F-9.6°C 57% 6.0 mph SW9.7 kmh SW 13.0 mph20.9 kmh 30.07 in1018.3 mb 0.00 in0.0 mm 0.00 in0.0 mm 0.00 in0.0 mm
12:13 AM 28.2°F-2.1°C 14.7°F-9.6°C 57% 7.0 mph SW11.3 kmh SW 12.0 mph19.3 kmh 30.07 in1018.3 mb 0.00 in0.0 mm 0.00 in0.0 mm 0.00 in0.0 mm
12:18 AM 28.2°F-2.1°C 14.7°F-9.6°C 57% 7.0 mph SW11.3 kmh SW 12.0 mph19.3 kmh 30.07 in1018.3 mb 0.00 in0.0 mm 0.00 in0.0 mm 0.00 in0.0 mm
12:23 AM 28.2°F-2.1°C 14.7°F-9.6°C 57% 7.0 mph S11.3 kmh S 11.0 mph17.7 kmh 30.07 in1018.3 mb 0.00 in0.0 mm 0.00 in0.0 mm 0.00 in0.0 mm
12:28 AM 28.1°F-2.2°C 14.6°F-9.7°C 57% 5.0 mph SW8.0 kmh SW 12.0 mph19.3 kmh 30.08 in1018.6 mb 0.00 in0.0 mm 0.00 in0.0 mm 0.00 in0.0 mm
12:33 AM 28.1°F-2.2°C 14.6°F-9.7°C 57% 7.0 mph SW11.3 kmh SW 14.0 mph22.5 kmh 30.08 in1018.6 mb 0.00 in0.0 mm 0.00 in0.0 mm 0.00 in0.0 mm
12:38 AM 28.1°F-2.2°C 14.6°F-9.7°C 57% 4.0 mph WSW6.4 kmh WSW 16.0 mph25.7 kmh 30.07 in1018.3 mb 0.00 in0.0 mm 0.00 in0.0 mm 0.00 in0.0 mm
12:43 AM 28.0°F-2.2°C 14.5°F-9.7°C 57% 8.0 mph SW12.9 kmh SW 16.0 mph25.7 kmh 30.07 in1018.3 mb 0.00 in0.0 mm 0.00 in0.0 mm 0.00 in0.0 mm
12:48 AM 27.9°F-2.3°C 14.8°F-9.6°C 58% 14.0 mph SW22.5 kmh SW 16.0 mph25.7 kmh 30.07 in1018.3 mb 0.00 in0.0 mm 0.00 in0.0 mm 0.00 in0.0 mm
12:53 AM 27.8°F-2.3°C 14.7°F-9.6°C 58% 5.0 mph SW8.0 kmh SW 16.0 mph25.7 kmh 30.07 in1018.3 mb 0.00 in0.0 mm 0.00 in0.0 mm 0.00 in0.0 mm
12:58 AM 27.7°F-2.4°C 14.6°F-9.7°C 58% 4.0 mph SW6.4 kmh SW 14.0 mph22.5 kmh 30.07 in1018.3 mb 0.00 in0.0 mm 0.00 in0.0 mm 0.00 in0.0 mm
01:03 AM 27.7°F-2.4°C 14.6°F-9.7°C 58% 4.0 mph SW6.4 kmh SW 14.0 mph22.5 kmh 30.07 in1018.3 mb 0.00 in0.0 mm 0.00 in0.0 mm 0.00 in0.0 mm
01:08 AM 27.5°F-2.5°C 14.5°F-9.7°C 58% 7.0 mph SW11.3 kmh SW 14.0 mph22.5 kmh 30.07 in1018.3 mb 0.00 in0.0 mm 0.00 in0.0 mm 0.00 in0.0 mm
01:13 AM 27.5°F-2.5°C 14.5°F-9.7°C 58% 4.0 mph SW6.4 kmh SW 14.0 mph22.5 kmh 30.07 in1018.3 mb 0.00 in0.0 mm 0.00 in0.0 mm 0.00 in0.0 mm
01:18 AM 27.5°F-2.5°C 14.5°F-9.7°C 58% 5.0 mph SW8.0 kmh SW 14.0 mph22.5 kmh 30.07 in1018.3 mb 0.00 in0.0 mm 0.00 in0.0 mm 0.00 in0.0 mm
01:23 AM 27.5°F-2.5°C 14.5°F-9.7°C 58% 6.0 mph SW9.7 kmh SW 14.0 mph22.5 kmh 30.07 in1018.3 mb 0.00 in0.0 mm 0.00 in0.0 mm 0.00 in0.0 mm
01:28 AM 27.5°F-2.5°C 14.5°F-9.7°C 58% 6.0 mph SW9.7 kmh SW 14.0 mph22.5 kmh 30.07 in1018.3 mb 0.00 in0.0 mm 0.00 in0.0 mm 0.00 in0.0 mm
01:33 AM 27.4°F-2.6°C 14.4°F-9.8°C 58% 7.0 mph SW11.3 kmh SW 14.0 mph22.5 kmh 30.07 in1018.3 mb 0.00 in0.0 mm 0.00 in0.0 mm 0.00 in0.0 mm
01:38 AM 27.3°F-2.6°C 14.3°F-9.8°C 58% 9.0 mph SSW14.5 kmh SSW 14.0 mph22.5 kmh 30.06 in1017.9 mb 0.00 in0.0 mm 0.00 in0.0 mm 0.00 in0.0 mm
01:43 AM 27.2°F-2.7°C 14.2°F-9.9°C 58% 8.0 mph SW12.9 kmh SW 16.0 mph25.7 kmh 30.06 in1017.9 mb 0.00 in0.0 mm 0.00 in0.0 mm 0.00 in0.0 mm
01:48 AM 27.1°F-2.7°C 14.1°F-9.9°C 58% 6.0 mph SW9.7 kmh SW 16.0 mph25.7 kmh 30.06 in1017.9 mb 0.00 in0.0 mm 0.00 in0.0 mm 0.00 in0.0 mm
01:53 AM 26.9°F-2.8°C 14.3°F-9.8°C 59% 7.0 mph WSW11.3 kmh WSW 16.0 mph25.7 kmh 30.06 in1017.9 mb 0.00 in0.0 mm 0.00 in0.0 mm 0.00 in0.0 mm
01:58 AM 26.8°F-2.9°C 14.2°F-9.9°C 59% 5.0 mph SW8.0 kmh SW 16.0 mph25.7 kmh 30.06 in1017.9 mb 0.00 in0.0 mm 0.00 in0.0 mm 0.00 in0.0 mm
02:03 AM 26.7°F-2.9°C 14.1°F-9.9°C 59% 6.0 mph SSW9.7 kmh SSW 13.0 mph20.9 kmh 30.07 in1018.3 mb 0.00 in0.0 mm 0.00 in0.0 mm 0.00 in0.0 mm
02:08 AM 26.7°F-2.9°C 14.1°F-9.9°C 59% 7.0 mph SW11.3 kmh SW 13.0 mph20.9 kmh 30.06 in1017.9 mb 0.00 in0.0 mm 0.00 in0.0 mm 0.00 in0.0 mm
02:13 AM 26.7°F-2.9°C 14.1°F-9.9°C 59% 6.0 mph SSW9.7 kmh SSW 16.0 mph25.7 kmh 30.07 in1018.3 mb 0.00 in0.0 mm 0.00 in0.0 mm 0.00 in0.0 mm
02:18 AM 26.6°F-3.0°C 14.0°F-10.0°C 59% 7.0 mph SSW11.3 kmh SSW 16.0 mph25.7 kmh 30.07 in1018.3 mb 0.00 in0.0 mm 0.00 in0.0 mm 0.00 in0.0 mm
02:23 AM 26.6°F-3.0°C 14.0°F-10.0°C 59% 6.0 mph SSW9.7 kmh SSW 20.0 mph32.2 kmh 30.07 in1018.3 mb 0.00 in0.0 mm 0.00 in0.0 mm 0.00 in0.0 mm
02:28 AM 26.5°F-3.1°C 13.9°F-10.1°C 59% 6.0 mph SW9.7 kmh SW 20.0 mph32.2 kmh 30.07 in1018.3 mb 0.00 in0.0 mm 0.00 in0.0 mm 0.00 in0.0 mm
02:33 AM 26.4°F-3.1°C 13.8°F-10.1°C 59% 7.0 mph SW11.3 kmh SW 20.0 mph32.2 kmh 30.07 in1018.3 mb 0.00 in0.0 mm 0.00 in0.0 mm 0.00 in0.0 mm
02:38 AM 26.4°F-3.1°C 13.8°F-10.1°C 59% 13.0 mph WSW20.9 kmh WSW 20.0 mph32.2 kmh 30.07 in1018.3 mb 0.00 in0.0 mm 0.00 in0.0 mm 0.00 in0.0 mm
02:43 AM 26.4°F-3.1°C 13.8°F-10.1°C 59% 7.0 mph SW11.3 kmh SW 16.0 mph25.7 kmh 30.07 in1018.3 mb 0.00 in0.0 mm 0.00 in0.0 mm 0.00 in0.0 mm
02:48 AM 26.3°F-3.2°C 13.7°F-10.2°C 59% 5.0 mph SW8.0 kmh SW 16.0 mph25.7 kmh 30.07 in1018.3 mb 0.00 in0.0 mm 0.00 in0.0 mm 0.00 in0.0 mm
02:53 AM 26.3°F-3.2°C 13.7°F-10.2°C 59% 5.0 mph SSW8.0 kmh SSW 11.0 mph17.7 kmh 30.07 in1018.3 mb 0.00 in0.0 mm 0.00 in0.0 mm 0.00 in0.0 mm
02:58 AM 26.3°F-3.2°C 13.7°F-10.2°C 59% 6.0 mph SW9.7 kmh SW 17.0 mph27.4 kmh 30.07 in1018.3 mb 0.00 in0.0 mm 0.00 in0.0 mm 0.00 in0.0 mm
03:03 AM 26.3°F-3.2°C 13.7°F-10.2°C 59% 7.0 mph SW11.3 kmh SW 17.0 mph27.4 kmh 30.07 in1018.3 mb 0.00 in0.0 mm 0.00 in0.0 mm 0.00 in0.0 mm
03:08 AM 26.3°F-3.2°C 13.7°F-10.2°C 59% 5.0 mph SW8.0 kmh SW 17.0 mph27.4 kmh 30.07 in1018.3 mb 0.00 in0.0 mm 0.00 in0.0 mm 0.00 in0.0 mm
03:13 AM 26.2°F-3.2°C 13.6°F-10.2°C 59% 7.0 mph WSW11.3 kmh WSW 17.0 mph27.4 kmh 30.07 in1018.3 mb 0.00 in0.0 mm 0.00 in0.0 mm 0.00 in0.0 mm
03:18 AM 26.2°F-3.2°C 13.6°F-10.2°C 59% 7.0 mph SSW11.3 kmh SSW 14.0 mph22.5 kmh 30.07 in1018.3 mb 0.00 in0.0 mm 0.00 in0.0 mm 0.00 in0.0 mm
03:23 AM 26.2°F-3.2°C 13.6°F-10.2°C 59% 4.0 mph SW6.4 kmh SW 14.0 mph22.5 kmh 30.07 in1018.3 mb 0.00 in0.0 mm 0.00 in0.0 mm 0.00 in0.0 mm
03:28 AM 26.2°F-3.2°C 13.6°F-10.2°C 59% 6.0 mph SW9.7 kmh SW 11.0 mph17.7 kmh 30.07 in1018.3 mb 0.00 in0.0 mm 0.00 in0.0 mm 0.00 in0.0 mm
03:33 AM 26.2°F-3.2°C 13.6°F-10.2°C 59% 4.0 mph SW6.4 kmh SW 12.0 mph19.3 kmh 30.07 in1018.3 mb 0.00 in0.0 mm 0.00 in0.0 mm 0.00 in0.0 mm
03:38 AM 26.2°F-3.2°C 13.6°F-10.2°C 59% 5.0 mph SW8.0 kmh SW 12.0 mph19.3 kmh 30.07 in1018.3 mb 0.00 in0.0 mm 0.00 in0.0 mm 0.00 in0.0 mm
03:43 AM 26.2°F-3.2°C 13.6°F-10.2°C 59% 5.0 mph SW8.0 kmh SW 12.0 mph19.3 kmh 30.07 in1018.3 mb 0.00 in0.0 mm 0.00 in0.0 mm 0.00 in0.0 mm
03:48 AM 26.2°F-3.2°C 13.6°F-10.2°C 59% 6.0 mph WSW9.7 kmh WSW 12.0 mph19.3 kmh 30.07 in1018.3 mb 0.00 in0.0 mm 0.00 in0.0 mm 0.00 in0.0 mm
03:53 AM 26.2°F-3.2°C 13.6°F-10.2°C 59% 7.0 mph SW11.3 kmh SW 14.0 mph22.5 kmh 30.07 in1018.3 mb 0.00 in0.0 mm 0.00 in0.0 mm 0.00 in0.0 mm
03:58 AM 26.3°F-3.2°C 13.7°F-10.2°C 59% 7.0 mph SW11.3 kmh SW 14.0 mph22.5 kmh 30.07 in1018.3 mb 0.00 in0.0 mm 0.00 in0.0 mm 0.00 in0.0 mm
04:03 AM 26.2°F-3.2°C 13.6°F-10.2°C 59% 8.0 mph WSW12.9 kmh WSW 14.0 mph22.5 kmh 30.07 in1018.3 mb 0.00 in0.0 mm 0.00 in0.0 mm 0.00 in0.0 mm
04:08 AM 26.2°F-3.2°C 13.6°F-10.2°C 59% 5.0 mph WSW8.0 kmh WSW 18.0 mph29.0 kmh 30.07 in1018.3 mb 0.00 in0.0 mm 0.00 in0.0 mm 0.00 in0.0 mm
04:13 AM 26.2°F-3.2°C 13.6°F-10.2°C 59% 4.0 mph SW6.4 kmh SW 18.0 mph29.0 kmh 30.07 in1018.3 mb 0.00 in0.0 mm 0.00 in0.0 mm 0.00 in0.0 mm
04:18 AM 26.1°F-3.3°C 13.5°F-10.3°C 59% 4.0 mph SW6.4 kmh SW 18.0 mph29.0 kmh 30.07 in1018.3 mb 0.00 in0.0 mm 0.00 in0.0 mm 0.00 in0.0 mm
04:23 AM 26.0°F-3.3°C 13.4°F-10.3°C 59% 4.0 mph WSW6.4 kmh WSW 18.0 mph29.0 kmh 30.07 in1018.3 mb 0.00 in0.0 mm 0.00 in0.0 mm 0.00 in0.0 mm
04:28 AM 25.9°F-3.4°C 13.4°F-10.3°C 59% 5.0 mph SW8.0 kmh SW 13.0 mph20.9 kmh 30.06 in1017.9 mb 0.00 in0.0 mm 0.00 in0.0 mm 0.00 in0.0 mm
04:33 AM 25.9°F-3.4°C 13.4°F-10.3°C 59% 7.0 mph SSW11.3 kmh SSW 15.0 mph24.1 kmh 30.06 in1017.9 mb 0.00 in0.0 mm 0.00 in0.0 mm 0.00 in0.0 mm
04:38 AM 25.8°F-3.4°C 13.3°F-10.4°C 59% 6.0 mph SW9.7 kmh SW 15.0 mph24.1 kmh 30.06 in1017.9 mb 0.00 in0.0 mm 0.00 in0.0 mm 0.00 in0.0 mm
04:43 AM 25.9°F-3.4°C 13.4°F-10.3°C 59% 9.0 mph WSW14.5 kmh WSW 15.0 mph24.1 kmh 30.06 in1017.9 mb 0.00 in0.0 mm 0.00 in0.0 mm 0.00 in0.0 mm
04:48 AM 25.9°F-3.4°C 13.4°F-10.3°C 59% 6.0 mph SSW9.7 kmh SSW 15.0 mph24.1 kmh 30.06 in1017.9 mb 0.00 in0.0 mm 0.00 in0.0 mm 0.00 in0.0 mm
04:53 AM 25.9°F-3.4°C 13.4°F-10.3°C 59% 7.0 mph S11.3 kmh S 14.0 mph22.5 kmh 30.06 in1017.9 mb 0.00 in0.0 mm 0.00 in0.0 mm 0.00 in0.0 mm
04:58 AM 26.0°F-3.3°C 13.4°F-10.3°C 59% 5.0 mph SW8.0 kmh SW 16.0 mph25.7 kmh 30.06 in1017.9 mb 0.00 in0.0 mm 0.00 in0.0 mm 0.00 in0.0 mm
05:03 AM 26.0°F-3.3°C 13.4°F-10.3°C 59% 6.0 mph SSW9.7 kmh SSW 18.0 mph29.0 kmh 30.06 in1017.9 mb 0.00 in0.0 mm 0.00 in0.0 mm 0.00 in0.0 mm
05:08 AM 26.0°F-3.3°C 13.4°F-10.3°C 59% 3.0 mph SW4.8 kmh SW 18.0 mph29.0 kmh 30.06 in1017.9 mb 0.00 in0.0 mm 0.00 in0.0 mm 0.00 in0.0 mm
05:13 AM 25.9°F-3.4°C 13.4°F-10.3°C 59% 6.0 mph SW9.7 kmh SW 18.0 mph29.0 kmh 30.06 in1017.9 mb 0.00 in0.0 mm 0.00 in0.0 mm 0.00 in0.0 mm
05:18 AM 25.9°F-3.4°C 13.4°F-10.3°C 59% 5.0 mph SW8.0 kmh SW 18.0 mph29.0 kmh 30.06 in1017.9 mb 0.00 in0.0 mm 0.00 in0.0 mm 0.00 in0.0 mm
05:23 AM 25.9°F-3.4°C 13.4°F-10.3°C 59% 6.0 mph SW9.7 kmh SW 14.0 mph22.5 kmh 30.06 in1017.9 mb 0.00 in0.0 mm 0.00 in0.0 mm 0.00 in0.0 mm
05:28 AM 25.9°F-3.4°C 13.4°F-10.3°C 59% 7.0 mph SW11.3 kmh SW 14.0 mph22.5 kmh 30.06 in1017.9 mb 0.00 in0.0 mm 0.00 in0.0 mm 0.00 in0.0 mm
05:33 AM 25.9°F-3.4°C 13.4°F-10.3°C 59% 7.0 mph SSW11.3 kmh SSW 14.0 mph22.5 kmh 30.06 in1017.9 mb 0.00 in0.0 mm 0.00 in0.0 mm 0.00 in0.0 mm
05:38 AM 26.0°F-3.3°C 13.4°F-10.3°C 59% 9.0 mph S14.5 kmh S 19.0 mph30.6 kmh 30.06 in1017.9 mb 0.00 in0.0 mm 0.00 in0.0 mm 0.00 in0.0 mm
05:43 AM 26.0°F-3.3°C 13.4°F-10.3°C 59% 3.0 mph SW4.8 kmh SW 21.0 mph33.8 kmh 30.06 in1017.9 mb 0.00 in0.0 mm 0.00 in0.0 mm 0.00 in0.0 mm
05:48 AM 25.9°F-3.4°C 13.4°F-10.3°C 59% 6.0 mph S9.7 kmh S 21.0 mph33.8 kmh 30.06 in1017.9 mb 0.00 in0.0 mm 0.00 in0.0 mm 0.00 in0.0 mm
05:53 AM 25.9°F-3.4°C 13.4°F-10.3°C 59% 4.0 mph SW6.4 kmh SW 21.0 mph33.8 kmh 30.06 in1017.9 mb 0.00 in0.0 mm 0.00 in0.0 mm 0.00 in0.0 mm
05:58 AM 25.8°F-3.4°C 13.3°F-10.4°C 59% 5.0 mph SSW8.0 kmh SSW 21.0 mph33.8 kmh 30.07 in1018.3 mb 0.00 in0.0 mm 0.00 in0.0 mm 0.00 in0.0 mm
06:03 AM 25.7°F-3.5°C 13.2°F-10.4°C 59% 3.0 mph SSW4.8 kmh SSW 13.0 mph20.9 kmh 30.07 in1018.3 mb 0.00 in0.0 mm 0.00 in0.0 mm 0.00 in0.0 mm
06:08 AM 25.7°F-3.5°C 13.2°F-10.4°C 59% 3.0 mph S4.8 kmh S 13.0 mph20.9 kmh 30.07 in1018.3 mb 0.00 in0.0 mm 0.00 in0.0 mm 0.00 in0.0 mm
06:13 AM 25.7°F-3.5°C 13.2°F-10.4°C 59% 9.0 mph SSW14.5 kmh SSW 17.0 mph27.4 kmh 30.07 in1018.3 mb 0.00 in0.0 mm 0.00 in0.0 mm 0.00 in0.0 mm
06:18 AM 25.7°F-3.5°C 13.2°F-10.4°C 59% 9.0 mph SW14.5 kmh SW 17.0 mph27.4 kmh 30.07 in1018.3 mb 0.00 in0.0 mm 0.00 in0.0 mm 0.00 in0.0 mm
06:23 AM 25.7°F-3.5°C 13.2°F-10.4°C 59% 7.0 mph SW11.3 kmh SW 17.0 mph27.4 kmh 30.07 in1018.3 mb 0.00 in0.0 mm 0.00 in0.0 mm 0.00 in0.0 mm
06:28 AM 25.8°F-3.4°C 13.3°F-10.4°C 59% 8.0 mph SW12.9 kmh SW 17.0 mph27.4 kmh 30.07 in1018.3 mb 0.00 in0.0 mm 0.00 in0.0 mm 0.00 in0.0 mm
06:33 AM 25.8°F-3.4°C 13.7°F-10.2°C 60% 4.0 mph SW6.4 kmh SW 15.0 mph24.1 kmh 30.07 in1018.3 mb 0.00 in0.0 mm 0.00 in0.0 mm 0.00 in0.0 mm
06:38 AM 25.7°F-3.5°C 13.2°F-10.4°C 59% 5.0 mph SW8.0 kmh SW 15.0 mph24.1 kmh 30.08 in1018.6 mb 0.00 in0.0 mm 0.00 in0.0 mm 0.00 in0.0 mm
06:43 AM 25.6°F-3.6°C 13.1°F-10.5°C 59% 4.0 mph WSW6.4 kmh WSW 10.0 mph16.1 kmh 30.08 in1018.6 mb 0.00 in0.0 mm 0.00 in0.0 mm 0.00 in0.0 mm
06:48 AM 25.6°F-3.6°C 13.5°F-10.3°C 60% 5.0 mph SW8.0 kmh SW 10.0 mph16.1 kmh 30.07 in1018.3 mb 0.00 in0.0 mm 0.00 in0.0 mm 0.00 in0.0 mm
06:53 AM 25.4°F-3.7°C 13.3°F-10.4°C 60% 4.0 mph SSW6.4 kmh SSW 10.0 mph16.1 kmh 30.08 in1018.6 mb 0.00 in0.0 mm 0.00 in0.0 mm 0.00 in0.0 mm
06:58 AM 25.4°F-3.7°C 13.3°F-10.4°C 60% 3.0 mph SSW4.8 kmh SSW 15.0 mph24.1 kmh 30.08 in1018.6 mb 0.00 in0.0 mm 0.00 in0.0 mm 0.00 in0.0 mm
07:03 AM 25.3°F-3.7°C 13.2°F-10.4°C 60% 7.0 mph S11.3 kmh S 15.0 mph24.1 kmh 30.08 in1018.6 mb 0.00 in0.0 mm 0.00 in0.0 mm 0.00 in0.0 mm
07:08 AM 25.3°F-3.7°C 13.2°F-10.4°C 60% 5.0 mph SSW8.0 kmh SSW 15.0 mph24.1 kmh 30.08 in1018.6 mb 0.00 in0.0 mm 0.00 in0.0 mm 0.00 in0.0 mm
07:13 AM 25.4°F-3.7°C 13.3°F-10.4°C 60% 7.0 mph S11.3 kmh S 18.0 mph29.0 kmh 30.07 in1018.3 mb 0.00 in0.0 mm 0.00 in0.0 mm 0.00 in0.0 mm
07:18 AM 25.5°F-3.6°C 13.4°F-10.3°C 60% 14.0 mph S22.5 kmh S 18.0 mph29.0 kmh 30.07 in1018.3 mb 0.00 in0.0 mm 0.00 in0.0 mm 0.00 in0.0 mm
07:23 AM 25.5°F-3.6°C 13.4°F-10.3°C 60% 6.0 mph SSE9.7 kmh SSE 18.0 mph29.0 kmh 30.07 in1018.3 mb 0.00 in0.0 mm 0.00 in0.0 mm 0.00 in0.0 mm
07:28 AM 25.5°F-3.6°C 13.4°F-10.3°C 60% 7.0 mph S11.3 kmh S 18.0 mph29.0 kmh 30.07 in1018.3 mb 0.00 in0.0 mm 0.00 in0.0 mm 0.00 in0.0 mm
07:33 AM 25.4°F-3.7°C 13.3°F-10.4°C 60% 3.0 mph SW4.8 kmh SW 13.0 mph20.9 kmh 30.07 in1018.3 mb 0.00 in0.0 mm 0.00 in0.0 mm 0.00 in0.0 mm
07:38 AM 25.4°F-3.7°C 13.3°F-10.4°C 60% 8.0 mph S12.9 kmh S 13.0 mph20.9 kmh 30.07 in1018.3 mb 0.00 in0.0 mm 0.00 in0.0 mm 0.00 in0.0 mm
07:43 AM 25.4°F-3.7°C 13.3°F-10.4°C 60% 3.0 mph SW4.8 kmh SW 12.0 mph19.3 kmh 30.07 in1018.3 mb 0.00 in0.0 mm 0.00 in0.0 mm 0.00 in0.0 mm
07:48 AM 25.3°F-3.7°C 13.2°F-10.4°C 60% 7.0 mph WSW11.3 kmh WSW 12.0 mph19.3 kmh 30.07 in1018.3 mb 0.00 in0.0 mm 0.00 in0.0 mm 0.00 in0.0 mm
07:53 AM 25.2°F-3.8°C 13.5°F-10.3°C 61% 12.0 mph SSW19.3 kmh SSW 15.0 mph24.1 kmh 30.07 in1018.3 mb 0.00 in0.0 mm 0.00 in0.0 mm 0.00 in0.0 mm
07:58 AM 25.2°F-3.8°C 13.5°F-10.3°C 61% 7.0 mph SSW11.3 kmh SSW 15.0 mph24.1 kmh 30.07 in1018.3 mb 0.00 in0.0 mm 0.00 in0.0 mm 0.00 in0.0 mm
08:03 AM 25.2°F-3.8°C 13.5°F-10.3°C 61% 6.0 mph S9.7 kmh S 15.0 mph24.1 kmh 30.07 in1018.3 mb 0.00 in0.0 mm 0.00 in0.0 mm 0.00 in0.0 mm
08:08 AM 25.2°F-3.8°C 13.5°F-10.3°C 61% 7.0 mph S11.3 kmh S 15.0 mph24.1 kmh 30.07 in1018.3 mb 0.00 in0.0 mm 0.00 in0.0 mm 0.00 in0.0 mm
08:13 AM 25.2°F-3.8°C 13.5°F-10.3°C 61% 6.0 mph SW9.7 kmh SW 14.0 mph22.5 kmh 30.07 in1018.3 mb 0.00 in0.0 mm 0.00 in0.0 mm 0.00 in0.0 mm
08:18 AM 25.2°F-3.8°C 13.5°F-10.3°C 61% 5.0 mph SW8.0 kmh SW 14.0 mph22.5 kmh 30.07 in1018.3 mb 0.00 in0.0 mm 0.00 in0.0 mm 0.00 in0.0 mm
08:23 AM 25.2°F-3.8°C 13.5°F-10.3°C 61% 4.0 mph SW6.4 kmh SW 13.0 mph20.9 kmh 30.06 in1017.9 mb 0.00 in0.0 mm 0.00 in0.0 mm 0.00 in0.0 mm
08:28 AM 25.2°F-3.8°C 13.5°F-10.3°C 61% 7.0 mph S11.3 kmh S 14.0 mph22.5 kmh 30.06 in1017.9 mb 0.00 in0.0 mm 0.00 in0.0 mm 0.00 in0.0 mm
08:33 AM 25.2°F-3.8°C 13.5°F-10.3°C 61% 2.0 mph SW3.2 kmh SW 14.0 mph22.5 kmh 30.07 in1018.3 mb 0.00 in0.0 mm 0.00 in0.0 mm 0.00 in0.0 mm
08:38 AM 25.2°F-3.8°C 13.5°F-10.3°C 61% 4.0 mph SSE6.4 kmh SSE 14.0 mph22.5 kmh 30.07 in1018.3 mb 0.00 in0.0 mm 0.00 in0.0 mm 0.00 in0.0 mm
08:43 AM 25.2°F-3.8°C 13.9°F-10.1°C 62% 3.0 mph SW4.8 kmh SW 14.0 mph22.5 kmh 30.07 in1018.3 mb 0.00 in0.0 mm 0.00 in0.0 mm 0.00 in0.0 mm
08:48 AM 25.2°F-3.8°C 13.5°F-10.3°C 61% 3.0 mph SW4.8 kmh SW 13.0 mph20.9 kmh 30.07 in1018.3 mb 0.00 in0.0 mm 0.00 in0.0 mm 0.00 in0.0 mm
08:53 AM 25.1°F-3.8°C 13.8°F-10.1°C 62% 5.0 mph SSW8.0 kmh SSW 13.0 mph20.9 kmh 30.07 in1018.3 mb 0.00 in0.0 mm 0.00 in0.0 mm 0.00 in0.0 mm
08:58 AM 25.1°F-3.8°C 13.8°F-10.1°C 62% 11.0 mph SSW17.7 kmh SSW 14.0 mph22.5 kmh 30.07 in1018.3 mb 0.00 in0.0 mm 0.00 in0.0 mm 0.00 in0.0 mm
09:03 AM 25.1°F-3.8°C 13.8°F-10.1°C 62% 7.0 mph S11.3 kmh S 14.0 mph22.5 kmh 30.07 in1018.3 mb 0.00 in0.0 mm 0.00 in0.0 mm 0.00 in0.0 mm
09:08 AM 25.1°F-3.8°C 13.8°F-10.1°C 62% 5.0 mph SW8.0 kmh SW 14.0 mph22.5 kmh 30.07 in1018.3 mb 0.00 in0.0 mm 0.00 in0.0 mm 0.00 in0.0 mm
09:13 AM 25.2°F-3.8°C 13.9°F-10.1°C 62% 5.0 mph SSW8.0 kmh SSW 14.0 mph22.5 kmh 30.07 in1018.3 mb 0.00 in0.0 mm 0.00 in0.0 mm 0.00 in0.0 mm
09:18 AM 25.2°F-3.8°C 13.9°F-10.1°C 62% 9.0 mph SSW14.5 kmh SSW 14.0 mph22.5 kmh 30.07 in1018.3 mb 0.00 in0.0 mm 0.00 in0.0 mm 0.00 in0.0 mm
09:23 AM 25.3°F-3.7°C 14.0°F-10.0°C 62% 9.0 mph SW14.5 kmh SW 17.0 mph27.4 kmh 30.07 in1018.3 mb 0.00 in0.0 mm 0.00 in0.0 mm 0.00 in0.0 mm
09:28 AM 25.5°F-3.6°C 14.1°F-9.9°C 62% 4.0 mph SW6.4 kmh SW 17.0 mph27.4 kmh 30.07 in1018.3 mb 0.00 in0.0 mm 0.00 in0.0 mm 0.00 in0.0 mm
09:33 AM 25.6°F-3.6°C 14.2°F-9.9°C 62% 6.0 mph SW9.7 kmh SW 17.0 mph27.4 kmh 30.06 in1017.9 mb 0.00 in0.0 mm 0.00 in0.0 mm 0.00 in0.0 mm
09:38 AM 25.7°F-3.5°C 14.3°F-9.8°C 62% 9.0 mph SW14.5 kmh SW 17.0 mph27.4 kmh 30.06 in1017.9 mb 0.00 in0.0 mm 0.00 in0.0 mm 0.00 in0.0 mm
09:43 AM 25.9°F-3.4°C 14.5°F-9.7°C 62% 10.0 mph SSW16.1 kmh SSW 15.0 mph24.1 kmh 30.06 in1017.9 mb 0.00 in0.0 mm 0.00 in0.0 mm 0.00 in0.0 mm
09:48 AM 26.3°F-3.2°C 14.5°F-9.7°C 61% 5.0 mph SW8.0 kmh SW 16.0 mph25.7 kmh 30.06 in1017.9 mb 0.00 in0.0 mm 0.00 in0.0 mm 0.00 in0.0 mm
09:53 AM 26.6°F-3.0°C 14.8°F-9.6°C 61% 10.0 mph S16.1 kmh S 16.0 mph25.7 kmh 30.06 in1017.9 mb 0.00 in0.0 mm 0.00 in0.0 mm 0.00 in0.0 mm
09:58 AM 26.7°F-2.9°C 14.9°F-9.5°C 61% 1.0 mph WSW1.6 kmh WSW 16.0 mph25.7 kmh 30.06 in1017.9 mb 0.00 in0.0 mm 0.00 in0.0 mm 0.00 in0.0 mm
10:03 AM 27.0°F-2.8°C 14.8°F-9.6°C 60% 3.0 mph SW4.8 kmh SW 18.0 mph29.0 kmh 30.06 in1017.9 mb 0.00 in0.0 mm 0.00 in0.0 mm 0.00 in0.0 mm
10:08 AM 27.3°F-2.6°C 15.1°F-9.4°C 60% 7.0 mph SW11.3 kmh SW 18.0 mph29.0 kmh 30.06 in1017.9 mb 0.00 in0.0 mm 0.00 in0.0 mm 0.00 in0.0 mm
10:13 AM 27.5°F-2.5°C 15.3°F-9.3°C 60% 17.0 mph S27.4 kmh S 18.0 mph29.0 kmh 30.06 in1017.9 mb 0.00 in0.0 mm 0.00 in0.0 mm 0.00 in0.0 mm
10:18 AM 27.9°F-2.3°C 15.2°F-9.3°C 59% 4.0 mph SW6.4 kmh SW 24.0 mph38.6 kmh 30.06 in1017.9 mb 0.00 in0.0 mm 0.00 in0.0 mm 0.00 in0.0 mm
10:23 AM 28.0°F-2.2°C 15.3°F-9.3°C 59% 5.0 mph SW8.0 kmh SW 24.0 mph38.6 kmh 30.06 in1017.9 mb 0.00 in0.0 mm 0.00 in0.0 mm 0.00 in0.0 mm
10:28 AM 28.2°F-2.1°C 15.5°F-9.2°C 59% 8.0 mph SW12.9 kmh SW 24.0 mph38.6 kmh 30.05 in1017.6 mb 0.00 in0.0 mm 0.00 in0.0 mm 0.00 in0.0 mm
10:33 AM 28.3°F-2.1°C 15.6°F-9.1°C 59% 6.0 mph SW9.7 kmh SW 24.0 mph38.6 kmh 30.05 in1017.6 mb 0.00 in0.0 mm 0.00 in0.0 mm 0.00 in0.0 mm
10:38 AM 28.5°F-1.9°C 15.8°F-9.0°C 59% 11.0 mph SSW17.7 kmh SSW 15.0 mph24.1 kmh 30.06 in1017.9 mb 0.00 in0.0 mm 0.00 in0.0 mm 0.00 in0.0 mm
10:43 AM 28.8°F-1.8°C 15.7°F-9.1°C 58% 12.0 mph S19.3 kmh S 22.0 mph35.4 kmh 30.06 in1017.9 mb 0.00 in0.0 mm 0.00 in0.0 mm 0.00 in0.0 mm
10:48 AM 29.0°F-1.7°C 15.4°F-9.2°C 57% 11.0 mph SSW17.7 kmh SSW 22.0 mph35.4 kmh 30.05 in1017.6 mb 0.00 in0.0 mm 0.00 in0.0 mm 0.00 in0.0 mm
10:53 AM 29.2°F-1.6°C 15.6°F-9.1°C 57% 7.0 mph SW11.3 kmh SW 22.0 mph35.4 kmh 30.05 in1017.6 mb 0.00 in0.0 mm 0.00 in0.0 mm 0.00 in0.0 mm
10:58 AM 29.4°F-1.4°C 15.8°F-9.0°C 57% 13.0 mph S20.9 kmh S 22.0 mph35.4 kmh 30.05 in1017.6 mb 0.00 in0.0 mm 0.00 in0.0 mm 0.00 in0.0 mm
11:03 AM 29.6°F-1.3°C 16.0°F-8.9°C 57% 9.0 mph S14.5 kmh S 18.0 mph29.0 kmh 30.06 in1017.9 mb 0.00 in0.0 mm 0.00 in0.0 mm 0.00 in0.0 mm
11:08 AM 29.8°F-1.2°C 16.2°F-8.8°C 57% 8.0 mph SW12.9 kmh SW 18.0 mph29.0 kmh 30.06 in1017.9 mb 0.00 in0.0 mm 0.00 in0.0 mm 0.00 in0.0 mm
11:13 AM 29.9°F-1.2°C 16.3°F-8.7°C 57% 8.0 mph SW12.9 kmh SW 17.0 mph27.4 kmh 30.06 in1017.9 mb 0.00 in0.0 mm 0.00 in0.0 mm 0.00 in0.0 mm
11:18 AM 30.1°F-1.1°C 16.0°F-8.9°C 56% 6.0 mph SSW9.7 kmh SSW 18.0 mph29.0 kmh 30.06 in1017.9 mb 0.00 in0.0 mm 0.00 in0.0 mm 0.00 in0.0 mm
11:23 AM 30.4°F-0.9°C 16.3°F-8.7°C 56% 7.0 mph SSW11.3 kmh SSW 18.0 mph29.0 kmh 30.06 in1017.9 mb 0.00 in0.0 mm 0.00 in0.0 mm 0.00 in0.0 mm
11:28 AM 30.7°F-0.7°C 16.6°F-8.6°C 56% 6.0 mph WSW9.7 kmh WSW 18.0 mph29.0 kmh 30.06 in1017.9 mb 0.00 in0.0 mm 0.00 in0.0 mm 0.00 in0.0 mm
11:33 AM 30.8°F-0.7°C 16.3°F-8.7°C 55% 4.0 mph SW6.4 kmh SW 18.0 mph29.0 kmh 30.06 in1017.9 mb 0.00 in0.0 mm 0.00 in0.0 mm 0.00 in0.0 mm
11:38 AM 31.1°F-0.5°C 16.5°F-8.6°C 55% 8.0 mph S12.9 kmh S 18.0 mph29.0 kmh 30.06 in1017.9 mb 0.00 in0.0 mm 0.00 in0.0 mm 0.00 in0.0 mm
11:43 AM 31.2°F-0.4°C 16.6°F-8.6°C 55% 12.0 mph WSW19.3 kmh WSW 23.0 mph37.0 kmh 30.06 in1017.9 mb 0.00 in0.0 mm 0.00 in0.0 mm 0.00 in0.0 mm
11:48 AM 31.3°F-0.4°C 16.7°F-8.5°C 55% 5.0 mph SW8.0 kmh SW 23.0 mph37.0 kmh 30.06 in1017.9 mb 0.00 in0.0 mm 0.00 in0.0 mm 0.00 in0.0 mm
11:53 AM 31.5°F-0.3°C 16.5°F-8.6°C 54% 7.0 mph SSW11.3 kmh SSW 23.0 mph37.0 kmh 30.06 in1017.9 mb 0.00 in0.0 mm 0.00 in0.0 mm 0.00 in0.0 mm
11:58 AM 31.7°F-0.2°C 17.1°F-8.3°C 55% 13.0 mph S20.9 kmh S 23.0 mph37.0 kmh 30.05 in1017.6 mb 0.00 in0.0 mm 0.00 in0.0 mm 0.00 in0.0 mm
12:03 PM 31.9°F-0.1°C 16.9°F-8.4°C 54% 15.0 mph SW24.1 kmh SW 22.0 mph35.4 kmh 30.05 in1017.6 mb 0.00 in0.0 mm 0.00 in0.0 mm 0.00 in0.0 mm
12:08 PM 32.2°F0.1°C 17.1°F-8.3°C 54% 10.0 mph SW16.1 kmh SW 22.0 mph35.4 kmh 30.05 in1017.6 mb 0.00 in0.0 mm 0.00 in0.0 mm 0.00 in0.0 mm
12:13 PM 32.4°F0.2°C 17.3°F-8.2°C 54% 9.0 mph SSW14.5 kmh SSW 20.0 mph32.2 kmh 30.04 in1017.3 mb 0.00 in0.0 mm 0.00 in0.0 mm 0.00 in0.0 mm
12:18 PM 32.7°F0.4°C 17.1°F-8.3°C 53% 12.0 mph S19.3 kmh S 20.0 mph32.2 kmh 30.04 in1017.3 mb 0.00 in0.0 mm 0.00 in0.0 mm 0.00 in0.0 mm
12:23 PM 32.8°F0.4°C 17.2°F-8.2°C 53% 19.0 mph S30.6 kmh S 21.0 mph33.8 kmh 30.04 in1017.3 mb 0.00 in0.0 mm 0.00 in0.0 mm 0.00 in0.0 mm
12:28 PM 32.8°F0.4°C 17.2°F-8.2°C 53% 8.0 mph SW12.9 kmh SW 22.0 mph35.4 kmh 30.04 in1017.3 mb 0.00 in0.0 mm 0.00 in0.0 mm 0.00 in0.0 mm
12:33 PM 33.1°F0.6°C 18.0°F-7.8°C 54% 11.0 mph S17.7 kmh S 22.0 mph35.4 kmh 30.04 in1017.3 mb 0.00 in0.0 mm 0.00 in0.0 mm 0.00 in0.0 mm
12:38 PM 33.3°F0.7°C 18.2°F-7.7°C 54% 8.0 mph SW12.9 kmh SW 22.0 mph35.4 kmh 30.04 in1017.3 mb 0.00 in0.0 mm 0.00 in0.0 mm 0.00 in0.0 mm
12:43 PM 33.5°F0.8°C 17.9°F-7.8°C 53% 9.0 mph SSW14.5 kmh SSW 22.0 mph35.4 kmh 30.04 in1017.3 mb 0.00 in0.0 mm 0.00 in0.0 mm 0.00 in0.0 mm
12:48 PM 33.5°F0.8°C 17.9°F-7.8°C 53% 14.0 mph S22.5 kmh S 20.0 mph32.2 kmh 30.04 in1017.3 mb 0.00 in0.0 mm 0.00 in0.0 mm 0.00 in0.0 mm
12:53 PM 33.7°F0.9°C 18.1°F-7.7°C 53% 5.0 mph WSW8.0 kmh WSW 20.0 mph32.2 kmh 30.04 in1017.3 mb 0.00 in0.0 mm 0.00 in0.0 mm 0.00 in0.0 mm
12:58 PM 33.6°F0.9°C 18.4°F-7.6°C 54% 7.0 mph SW11.3 kmh SW 16.0 mph25.7 kmh 30.03 in1016.9 mb 0.00 in0.0 mm 0.00 in0.0 mm 0.00 in0.0 mm
01:03 PM 33.9°F1.1°C 18.3°F-7.6°C 53% 5.0 mph SW8.0 kmh SW 16.0 mph25.7 kmh 30.03 in1016.9 mb 0.00 in0.0 mm 0.00 in0.0 mm 0.00 in0.0 mm
01:08 PM 33.7°F0.9°C 18.1°F-7.7°C 53% 8.0 mph SW12.9 kmh SW 15.0 mph24.1 kmh 30.03 in1016.9 mb 0.00 in0.0 mm 0.00 in0.0 mm 0.00 in0.0 mm
01:13 PM 33.6°F0.9°C 18.4°F-7.6°C 54% 10.0 mph S16.1 kmh S 15.0 mph24.1 kmh 30.02 in1016.6 mb 0.00 in0.0 mm 0.00 in0.0 mm 0.00 in0.0 mm
01:18 PM 34.1°F1.2°C 18.4°F-7.6°C 53% 7.0 mph SSW11.3 kmh SSW 15.0 mph24.1 kmh 30.02 in1016.6 mb 0.00 in0.0 mm 0.00 in0.0 mm 0.00 in0.0 mm
01:23 PM 34.3°F1.3°C 18.2°F-7.7°C 52% 5.0 mph SW8.0 kmh SW 20.0 mph32.2 kmh 30.02 in1016.6 mb 0.00 in0.0 mm 0.00 in0.0 mm 0.00 in0.0 mm
01:28 PM 34.2°F1.2°C 18.1°F-7.7°C 52% 6.0 mph SW9.7 kmh SW 20.0 mph32.2 kmh 30.02 in1016.6 mb 0.00 in0.0 mm 0.00 in0.0 mm 0.00 in0.0 mm
01:33 PM 34.4°F1.3°C 18.7°F-7.4°C 53% 6.0 mph SW9.7 kmh SW 20.0 mph32.2 kmh 30.02 in1016.6 mb 0.00 in0.0 mm 0.00 in0.0 mm 0.00 in0.0 mm
01:38 PM 34.8°F1.6°C 18.6°F-7.4°C 52% 6.0 mph SW9.7 kmh SW 20.0 mph32.2 kmh 30.02 in1016.6 mb 0.00 in0.0 mm 0.00 in0.0 mm 0.00 in0.0 mm
01:43 PM 34.7°F1.5°C 19.0°F-7.2°C 53% 6.0 mph S9.7 kmh S 18.0 mph29.0 kmh 30.02 in1016.6 mb 0.00 in0.0 mm 0.00 in0.0 mm 0.00 in0.0 mm
01:48 PM 34.8°F1.6°C 18.6°F-7.4°C 52% 6.0 mph WSW9.7 kmh WSW 19.0 mph30.6 kmh 30.01 in1016.3 mb 0.00 in0.0 mm 0.00 in0.0 mm 0.00 in0.0 mm
01:53 PM 34.7°F1.5°C 19.0°F-7.2°C 53% 6.0 mph SW9.7 kmh SW 19.0 mph30.6 kmh 30.01 in1016.3 mb 0.00 in0.0 mm 0.00 in0.0 mm 0.00 in0.0 mm
01:58 PM 34.8°F1.6°C 19.1°F-7.2°C 53% 7.0 mph SSW11.3 kmh SSW 19.0 mph30.6 kmh 30.01 in1016.3 mb 0.00 in0.0 mm 0.00 in0.0 mm 0.00 in0.0 mm
02:03 PM 35.1°F1.7°C 19.4°F-7.0°C 53% 5.0 mph SW8.0 kmh SW 19.0 mph30.6 kmh 30.00 in1015.9 mb 0.00 in0.0 mm 0.00 in0.0 mm 0.00 in0.0 mm
02:08 PM 35.3°F1.8°C 19.1°F-7.2°C 52% 7.0 mph SSW11.3 kmh SSW 21.0 mph33.8 kmh 30.00 in1015.9 mb 0.00 in0.0 mm 0.00 in0.0 mm 0.00 in0.0 mm
02:13 PM 35.3°F1.8°C 19.1°F-7.2°C 52% 4.0 mph SW6.4 kmh SW 21.0 mph33.8 kmh 30.00 in1015.9 mb 0.00 in0.0 mm 0.00 in0.0 mm 0.00 in0.0 mm
02:18 PM 35.4°F1.9°C 19.2°F-7.1°C 52% 7.0 mph SW11.3 kmh SW 21.0 mph33.8 kmh 29.99 in1015.6 mb 0.00 in0.0 mm 0.00 in0.0 mm 0.00 in0.0 mm
02:23 PM 35.7°F2.1°C 19.5°F-6.9°C 52% 6.0 mph SW9.7 kmh SW 21.0 mph33.8 kmh 29.99 in1015.6 mb 0.00 in0.0 mm 0.00 in0.0 mm 0.00 in0.0 mm
02:28 PM 35.8°F2.1°C 19.1°F-7.2°C 51% 6.0 mph SW9.7 kmh SW 16.0 mph25.7 kmh 29.98 in1015.2 mb 0.00 in0.0 mm 0.00 in0.0 mm 0.00 in0.0 mm
02:33 PM 36.0°F2.2°C 19.3°F-7.1°C 51% 9.0 mph SW14.5 kmh SW 17.0 mph27.4 kmh 29.98 in1015.2 mb 0.00 in0.0 mm 0.00 in0.0 mm 0.00 in0.0 mm
02:38 PM 36.2°F2.3°C 19.9°F-6.7°C 52% 6.0 mph SW9.7 kmh SW 17.0 mph27.4 kmh 29.98 in1015.2 mb 0.00 in0.0 mm 0.00 in0.0 mm 0.00 in0.0 mm
02:43 PM 36.6°F2.6°C 19.8°F-6.8°C 51% 4.0 mph WSW6.4 kmh WSW 19.0 mph30.6 kmh 29.97 in1014.9 mb 0.00 in0.0 mm 0.00 in0.0 mm 0.00 in0.0 mm
02:48 PM 36.8°F2.7°C 20.5°F-6.4°C 52% 6.0 mph SSW9.7 kmh SSW 19.0 mph30.6 kmh 29.97 in1014.9 mb 0.00 in0.0 mm 0.00 in0.0 mm 0.00 in0.0 mm
02:53 PM 37.1°F2.8°C 20.3°F-6.5°C 51% 4.0 mph S6.4 kmh S 19.0 mph30.6 kmh 29.96 in1014.6 mb 0.00 in0.0 mm 0.00 in0.0 mm 0.00 in0.0 mm
02:58 PM 37.4°F3.0°C 20.6°F-6.3°C 51% 8.0 mph S12.9 kmh S 19.0 mph30.6 kmh 29.96 in1014.6 mb 0.00 in0.0 mm 0.00 in0.0 mm 0.00 in0.0 mm
03:03 PM 37.6°F3.1°C 20.7°F-6.3°C 51% 2.0 mph SW3.2 kmh SW 19.0 mph30.6 kmh 29.96 in1014.6 mb 0.00 in0.0 mm 0.00 in0.0 mm 0.00 in0.0 mm
03:08 PM 37.6°F3.1°C 20.7°F-6.3°C 51% 5.0 mph SW8.0 kmh SW 19.0 mph30.6 kmh 29.96 in1014.6 mb 0.00 in0.0 mm 0.00 in0.0 mm 0.00 in0.0 mm
03:13 PM 38.2°F3.4°C 20.8°F-6.2°C 50% 6.0 mph SW9.7 kmh SW 19.0 mph30.6 kmh 29.96 in1014.6 mb 0.00 in0.0 mm 0.00 in0.0 mm 0.00 in0.0 mm
03:18 PM 38.4°F3.6°C 21.5°F-5.8°C 51% 5.0 mph SSW8.0 kmh SSW 19.0 mph30.6 kmh 29.95 in1014.2 mb 0.00 in0.0 mm 0.00 in0.0 mm 0.00 in0.0 mm
03:23 PM 38.4°F3.6°C 20.5°F-6.4°C 49% 9.0 mph SSW14.5 kmh SSW 15.0 mph24.1 kmh 29.95 in1014.2 mb 0.00 in0.0 mm 0.00 in0.0 mm 0.00 in0.0 mm
03:28 PM 38.4°F3.6°C 21.0°F-6.1°C 50% 12.0 mph S19.3 kmh S 15.0 mph24.1 kmh 29.95 in1014.2 mb 0.00 in0.0 mm 0.00 in0.0 mm 0.00 in0.0 mm
03:33 PM 38.5°F3.6°C 20.6°F-6.3°C 49% 16.0 mph S25.7 kmh S 18.0 mph29.0 kmh 29.95 in1014.2 mb 0.00 in0.0 mm 0.00 in0.0 mm 0.00 in0.0 mm
03:38 PM 38.6°F3.7°C 21.2°F-6.0°C 50% 13.0 mph S20.9 kmh S 18.0 mph29.0 kmh 29.95 in1014.2 mb 0.00 in0.0 mm 0.00 in0.0 mm 0.00 in0.0 mm
03:43 PM 38.8°F3.8°C 20.9°F-6.2°C 49% 9.0 mph SW14.5 kmh SW 18.0 mph29.0 kmh 29.95 in1014.2 mb 0.00 in0.0 mm 0.00 in0.0 mm 0.00 in0.0 mm
03:48 PM 39.1°F3.9°C 21.1°F-6.1°C 49% 9.0 mph SSW14.5 kmh SSW 18.0 mph29.0 kmh 29.94 in1013.9 mb 0.00 in0.0 mm 0.00 in0.0 mm 0.00 in0.0 mm
03:53 PM 39.2°F4.0°C 21.2°F-6.0°C 49% 7.0 mph SW11.3 kmh SW 17.0 mph27.4 kmh 29.94 in1013.9 mb 0.00 in0.0 mm 0.00 in0.0 mm 0.00 in0.0 mm
03:58 PM 39.2°F4.0°C 21.2°F-6.0°C 49% 17.0 mph SSW27.4 kmh SSW 20.0 mph32.2 kmh 29.94 in1013.9 mb 0.00 in0.0 mm 0.00 in0.0 mm 0.00 in0.0 mm
04:03 PM 39.4°F4.1°C 21.4°F-5.9°C 49% 11.0 mph SSW17.7 kmh SSW 22.0 mph35.4 kmh 29.93 in1013.5 mb 0.00 in0.0 mm 0.00 in0.0 mm 0.00 in0.0 mm
04:08 PM 39.4°F4.1°C 21.4°F-5.9°C 49% 11.0 mph SW17.7 kmh SW 22.0 mph35.4 kmh 29.93 in1013.5 mb 0.00 in0.0 mm 0.00 in0.0 mm 0.00 in0.0 mm
04:13 PM 39.4°F4.1°C 21.4°F-5.9°C 49% 7.0 mph S11.3 kmh S 22.0 mph35.4 kmh 29.93 in1013.5 mb 0.00 in0.0 mm 0.00 in0.0 mm 0.00 in0.0 mm
04:18 PM 39.3°F4.1°C 21.8°F-5.7°C 50% 9.0 mph S14.5 kmh S 22.0 mph35.4 kmh 29.93 in1013.5 mb 0.00 in0.0 mm 0.00 in0.0 mm 0.00 in0.0 mm
04:23 PM 39.1°F3.9°C 21.6°F-5.8°C 50% 11.0 mph SW17.7 kmh SW 18.0 mph29.0 kmh 29.93 in1013.5 mb 0.00 in0.0 mm 0.00 in0.0 mm 0.00 in0.0 mm
04:28 PM 39.1°F3.9°C 21.6°F-5.8°C 50% 15.0 mph S24.1 kmh S 18.0 mph29.0 kmh 29.93 in1013.5 mb 0.00 in0.0 mm 0.00 in0.0 mm 0.00 in0.0 mm
04:33 PM 39.1°F3.9°C 21.6°F-5.8°C 50% 9.0 mph S14.5 kmh S 19.0 mph30.6 kmh 29.93 in1013.5 mb 0.00 in0.0 mm 0.00 in0.0 mm 0.00 in0.0 mm
04:38 PM 38.9°F3.8°C 21.9°F-5.6°C 51% 5.0 mph SSW8.0 kmh SSW 21.0 mph33.8 kmh 29.93 in1013.5 mb 0.00 in0.0 mm 0.00 in0.0 mm 0.00 in0.0 mm
04:43 PM 39.0°F3.9°C 22.0°F-5.6°C 51% 7.0 mph SSW11.3 kmh SSW 21.0 mph33.8 kmh 29.93 in1013.5 mb 0.00 in0.0 mm 0.00 in0.0 mm 0.00 in0.0 mm
04:48 PM 39.0°F3.9°C 22.0°F-5.6°C 51% 11.0 mph S17.7 kmh S 21.0 mph33.8 kmh 29.93 in1013.5 mb 0.00 in0.0 mm 0.00 in0.0 mm 0.00 in0.0 mm
04:53 PM 39.0°F3.9°C 21.5°F-5.8°C 50% 7.0 mph S11.3 kmh S 21.0 mph33.8 kmh 29.94 in1013.9 mb 0.00 in0.0 mm 0.00 in0.0 mm 0.00 in0.0 mm
04:58 PM 38.9°F3.8°C 21.9°F-5.6°C 51% 11.0 mph SW17.7 kmh SW 18.0 mph29.0 kmh 29.94 in1013.9 mb 0.00 in0.0 mm 0.00 in0.0 mm 0.00 in0.0 mm
05:03 PM 38.9°F3.8°C 21.9°F-5.6°C 51% 10.0 mph S16.1 kmh S 18.0 mph29.0 kmh 29.93 in1013.5 mb 0.00 in0.0 mm 0.00 in0.0 mm 0.00 in0.0 mm
05:08 PM 38.8°F3.8°C 21.4°F-5.9°C 50% 10.0 mph SSW16.1 kmh SSW 20.0 mph32.2 kmh 29.94 in1013.9 mb 0.00 in0.0 mm 0.00 in0.0 mm 0.00 in0.0 mm
05:13 PM 38.8°F3.8°C 21.4°F-5.9°C 50% 12.0 mph S19.3 kmh S 20.0 mph32.2 kmh 29.94 in1013.9 mb 0.00 in0.0 mm 0.00 in0.0 mm 0.00 in0.0 mm
05:18 PM 38.7°F3.7°C 21.8°F-5.7°C 51% 16.0 mph S25.7 kmh S 20.0 mph32.2 kmh 29.93 in1013.5 mb 0.00 in0.0 mm 0.00 in0.0 mm 0.00 in0.0 mm
05:23 PM 38.6°F3.7°C 21.2°F-6.0°C 50% 7.0 mph SSW11.3 kmh SSW 20.0 mph32.2 kmh 29.93 in1013.5 mb 0.00 in0.0 mm 0.00 in0.0 mm 0.00 in0.0 mm
05:28 PM 38.6°F3.7°C 21.2°F-6.0°C 50% 15.0 mph S24.1 kmh S 19.0 mph30.6 kmh 29.93 in1013.5 mb 0.00 in0.0 mm 0.00 in0.0 mm 0.00 in0.0 mm
05:33 PM 38.7°F3.7°C 21.3°F-5.9°C 50% 16.0 mph SSE25.7 kmh SSE 19.0 mph30.6 kmh 29.93 in1013.5 mb 0.00 in0.0 mm 0.00 in0.0 mm 0.00 in0.0 mm
05:38 PM 38.7°F3.7°C 21.3°F-5.9°C 50% 9.0 mph S14.5 kmh S 18.0 mph29.0 kmh 29.94 in1013.9 mb 0.00 in0.0 mm 0.00 in0.0 mm 0.00 in0.0 mm
05:43 PM 38.6°F3.7°C 21.2°F-6.0°C 50% 5.0 mph SW8.0 kmh SW 23.0 mph37.0 kmh 29.94 in1013.9 mb 0.00 in0.0 mm 0.00 in0.0 mm 0.00 in0.0 mm
05:48 PM 38.6°F3.7°C 21.2°F-6.0°C 50% 11.0 mph SSW17.7 kmh SSW 23.0 mph37.0 kmh 29.94 in1013.9 mb 0.00 in0.0 mm 0.00 in0.0 mm 0.00 in0.0 mm
05:53 PM 38.5°F3.6°C 21.1°F-6.1°C 50% 7.0 mph S11.3 kmh S 23.0 mph37.0 kmh 29.93 in1013.5 mb 0.00 in0.0 mm 0.00 in0.0 mm 0.00 in0.0 mm
05:58 PM 38.5°F3.6°C 21.1°F-6.1°C 50% 17.0 mph S27.4 kmh S 23.0 mph37.0 kmh 29.93 in1013.5 mb 0.00 in0.0 mm 0.00 in0.0 mm 0.00 in0.0 mm
06:03 PM 38.5°F3.6°C 21.1°F-6.1°C 50% 12.0 mph S19.3 kmh S 20.0 mph32.2 kmh 29.93 in1013.5 mb 0.00 in0.0 mm 0.00 in0.0 mm 0.00 in0.0 mm
06:08 PM 38.4°F3.6°C 21.0°F-6.1°C 50% 8.0 mph S12.9 kmh S 20.0 mph32.2 kmh 29.94 in1013.9 mb 0.00 in0.0 mm 0.00 in0.0 mm 0.00 in0.0 mm
06:13 PM 38.3°F3.5°C 20.9°F-6.2°C 50% 9.0 mph SSW14.5 kmh SSW 20.0 mph32.2 kmh 29.93 in1013.5 mb 0.00 in0.0 mm 0.00 in0.0 mm 0.00 in0.0 mm
06:18 PM 38.2°F3.4°C 20.8°F-6.2°C 50% 8.0 mph WSW12.9 kmh WSW 20.0 mph32.2 kmh 29.93 in1013.5 mb 0.00 in0.0 mm 0.00 in0.0 mm 0.00 in0.0 mm
06:23 PM 38.0°F3.3°C 20.6°F-6.3°C 50% 13.0 mph S20.9 kmh S 21.0 mph33.8 kmh 29.93 in1013.5 mb 0.00 in0.0 mm 0.00 in0.0 mm 0.00 in0.0 mm
06:28 PM 37.7°F3.2°C 20.8°F-6.2°C 51% 9.0 mph S14.5 kmh S 21.0 mph33.8 kmh 29.93 in1013.5 mb 0.00 in0.0 mm 0.00 in0.0 mm 0.00 in0.0 mm
06:33 PM 37.4°F3.0°C 20.6°F-6.3°C 51% 11.0 mph S17.7 kmh S 21.0 mph33.8 kmh 29.93 in1013.5 mb 0.00 in0.0 mm 0.00 in0.0 mm 0.00 in0.0 mm
06:38 PM 37.2°F2.9°C 20.8°F-6.2°C 52% 8.0 mph S12.9 kmh S 21.0 mph33.8 kmh 29.93 in1013.5 mb 0.00 in0.0 mm 0.00 in0.0 mm 0.00 in0.0 mm
06:43 PM 36.9°F2.7°C 20.6°F-6.3°C 52% 10.0 mph S16.1 kmh S 17.0 mph27.4 kmh 29.93 in1013.5 mb 0.00 in0.0 mm 0.00 in0.0 mm 0.00 in0.0 mm
06:48 PM 36.7°F2.6°C 20.9°F-6.2°C 53% 10.0 mph S16.1 kmh S 17.0 mph27.4 kmh 29.93 in1013.5 mb 0.00 in0.0 mm 0.00 in0.0 mm 0.00 in0.0 mm
06:53 PM 36.4°F2.4°C 20.6°F-6.3°C 53% 14.0 mph SSW22.5 kmh SSW 16.0 mph25.7 kmh 29.94 in1013.9 mb 0.00 in0.0 mm 0.00 in0.0 mm 0.00 in0.0 mm
06:58 PM 36.3°F2.4°C 20.5°F-6.4°C 53% 8.0 mph SSW12.9 kmh SSW 20.0 mph32.2 kmh 29.94 in1013.9 mb 0.00 in0.0 mm 0.00 in0.0 mm 0.00 in0.0 mm
07:03 PM 36.2°F2.3°C 20.4°F-6.4°C 53% 7.0 mph SSW11.3 kmh SSW 20.0 mph32.2 kmh 29.94 in1013.9 mb 0.00 in0.0 mm 0.00 in0.0 mm 0.00 in0.0 mm
07:08 PM 36.0°F2.2°C 20.2°F-6.6°C 53% 12.0 mph S19.3 kmh S 20.0 mph32.2 kmh 29.94 in1013.9 mb 0.00 in0.0 mm 0.00 in0.0 mm 0.00 in0.0 mm
07:13 PM 35.9°F2.2°C 20.6°F-6.3°C 54% 14.0 mph S22.5 kmh S 20.0 mph32.2 kmh 29.94 in1013.9 mb 0.00 in0.0 mm 0.00 in0.0 mm 0.00 in0.0 mm
07:18 PM 35.9°F2.2°C 20.6°F-6.3°C 54% 8.0 mph S12.9 kmh S 18.0 mph29.0 kmh 29.94 in1013.9 mb 0.00 in0.0 mm 0.00 in0.0 mm 0.00 in0.0 mm
07:23 PM 35.9°F2.2°C 20.6°F-6.3°C 54% 13.0 mph S20.9 kmh S 18.0 mph29.0 kmh 29.94 in1013.9 mb 0.00 in0.0 mm 0.00 in0.0 mm 0.00 in0.0 mm
07:28 PM 35.7°F2.1°C 20.4°F-6.4°C 54% 9.0 mph SSW14.5 kmh SSW 18.0 mph29.0 kmh 29.94 in1013.9 mb 0.00 in0.0 mm 0.00 in0.0 mm 0.00 in0.0 mm
07:33 PM 35.7°F2.1°C 20.4°F-6.4°C 54% 9.0 mph S14.5 kmh S 18.0 mph29.0 kmh 29.94 in1013.9 mb 0.00 in0.0 mm 0.00 in0.0 mm 0.00 in0.0 mm
07:38 PM 35.6°F2.0°C 20.3°F-6.5°C 54% 12.0 mph S19.3 kmh S 17.0 mph27.4 kmh 29.94 in1013.9 mb 0.00 in0.0 mm 0.00 in0.0 mm 0.00 in0.0 mm
07:43 PM 35.5°F1.9°C 20.2°F-6.6°C 54% 13.0 mph S20.9 kmh S 19.0 mph30.6 kmh 29.93 in1013.5 mb 0.00 in0.0 mm 0.00 in0.0 mm 0.00 in0.0 mm
07:48 PM 35.4°F1.9°C 20.5°F-6.4°C 55% 14.0 mph S22.5 kmh S 19.0 mph30.6 kmh 29.93 in1013.5 mb 0.00 in0.0 mm 0.00 in0.0 mm 0.00 in0.0 mm
07:53 PM 35.4°F1.9°C 20.5°F-6.4°C 55% 13.0 mph S20.9 kmh S 19.0 mph30.6 kmh 29.92 in1013.2 mb 0.00 in0.0 mm 0.00 in0.0 mm 0.00 in0.0 mm
07:58 PM 35.3°F1.8°C 20.5°F-6.4°C 55% 17.0 mph S27.4 kmh S 20.0 mph32.2 kmh 29.92 in1013.2 mb 0.00 in0.0 mm 0.00 in0.0 mm 0.00 in0.0 mm
08:03 PM 35.5°F1.9°C 20.2°F-6.6°C 54% 10.0 mph S16.1 kmh S 21.0 mph33.8 kmh 29.93 in1013.5 mb 0.00 in0.0 mm 0.00 in0.0 mm 0.00 in0.0 mm
08:08 PM 35.4°F1.9°C 20.5°F-6.4°C 55% 16.0 mph SSW25.7 kmh SSW 21.0 mph33.8 kmh 29.93 in1013.5 mb 0.00 in0.0 mm 0.00 in0.0 mm 0.00 in0.0 mm
08:13 PM 35.4°F1.9°C 20.5°F-6.4°C 55% 14.0 mph S22.5 kmh S 21.0 mph33.8 kmh 29.92 in1013.2 mb 0.00 in0.0 mm 0.00 in0.0 mm 0.00 in0.0 mm
08:18 PM 35.4°F1.9°C 20.5°F-6.4°C 55% 11.0 mph SSW17.7 kmh SSW 21.0 mph33.8 kmh 29.92 in1013.2 mb 0.00 in0.0 mm 0.00 in0.0 mm 0.00 in0.0 mm
08:23 PM 35.4°F1.9°C 20.5°F-6.4°C 55% 10.0 mph SSW16.1 kmh SSW 18.0 mph29.0 kmh 29.92 in1013.2 mb 0.00 in0.0 mm 0.00 in0.0 mm 0.00 in0.0 mm
08:28 PM 35.5°F1.9°C 20.2°F-6.6°C 54% 7.0 mph S11.3 kmh S 18.0 mph29.0 kmh 29.92 in1013.2 mb 0.00 in0.0 mm 0.00 in0.0 mm 0.00 in0.0 mm
08:33 PM 35.7°F2.1°C 20.4°F-6.4°C 54% 7.0 mph S11.3 kmh S 21.0 mph33.8 kmh 29.91 in1012.9 mb 0.00 in0.0 mm 0.00 in0.0 mm 0.00 in0.0 mm
08:38 PM 35.9°F2.2°C 20.6°F-6.3°C 54% 10.0 mph S16.1 kmh S 21.0 mph33.8 kmh 29.91 in1012.9 mb 0.00 in0.0 mm 0.00 in0.0 mm 0.00 in0.0 mm
08:43 PM 36.0°F2.2°C 20.7°F-6.3°C 54% 13.0 mph S20.9 kmh S 21.0 mph33.8 kmh 29.91 in1012.9 mb 0.00 in0.0 mm 0.00 in0.0 mm 0.00 in0.0 mm
08:48 PM 36.2°F2.3°C 20.4°F-6.4°C 53% 14.0 mph S22.5 kmh S 22.0 mph35.4 kmh 29.90 in1012.5 mb 0.00 in0.0 mm 0.00 in0.0 mm 0.00 in0.0 mm
08:53 PM 36.2°F2.3°C 20.4°F-6.4°C 53% 17.0 mph SSW27.4 kmh SSW 22.0 mph35.4 kmh 29.91 in1012.9 mb 0.00 in0.0 mm 0.00 in0.0 mm 0.00 in0.0 mm
08:58 PM 36.2°F2.3°C 20.4°F-6.4°C 53% 8.0 mph SW12.9 kmh SW 22.0 mph35.4 kmh 29.91 in1012.9 mb 0.00 in0.0 mm 0.00 in0.0 mm 0.00 in0.0 mm
09:03 PM 36.2°F2.3°C 20.4°F-6.4°C 53% 9.0 mph SW14.5 kmh SW 23.0 mph37.0 kmh 29.91 in1012.9 mb 0.00 in0.0 mm 0.00 in0.0 mm 0.00 in0.0 mm
09:08 PM 36.4°F2.4°C 20.6°F-6.3°C 53% 12.0 mph S19.3 kmh S 23.0 mph37.0 kmh 29.91 in1012.9 mb 0.00 in0.0 mm 0.00 in0.0 mm 0.00 in0.0 mm
09:13 PM 36.6°F2.6°C 20.8°F-6.2°C 53% 5.0 mph SW8.0 kmh SW 23.0 mph37.0 kmh 29.92 in1013.2 mb 0.00 in0.0 mm 0.00 in0.0 mm 0.00 in0.0 mm
09:18 PM 36.7°F2.6°C 20.9°F-6.2°C 53% 10.0 mph SSW16.1 kmh SSW 24.0 mph38.6 kmh 29.91 in1012.9 mb 0.00 in0.0 mm 0.00 in0.0 mm 0.00 in0.0 mm
09:23 PM 36.8°F2.7°C 20.5°F-6.4°C 52% 6.0 mph W9.7 kmh W 24.0 mph38.6 kmh 29.91 in1012.9 mb 0.00 in0.0 mm 0.00 in0.0 mm 0.00 in0.0 mm
09:28 PM 36.9°F2.7°C 20.6°F-6.3°C 52% 7.0 mph SW11.3 kmh SW 24.0 mph38.6 kmh 29.91 in1012.9 mb 0.00 in0.0 mm 0.00 in0.0 mm 0.00 in0.0 mm
09:33 PM 36.9°F2.7°C 20.6°F-6.3°C 52% 9.0 mph SW14.5 kmh SW 24.0 mph38.6 kmh 29.90 in1012.5 mb 0.00 in0.0 mm 0.00 in0.0 mm 0.00 in0.0 mm
09:38 PM 36.9°F2.7°C 20.6°F-6.3°C 52% 17.0 mph SSW27.4 kmh SSW 23.0 mph37.0 kmh 29.91 in1012.9 mb 0.00 in0.0 mm 0.00 in0.0 mm 0.00 in0.0 mm
09:43 PM 37.0°F2.8°C 20.7°F-6.3°C 52% 11.0 mph SW17.7 kmh SW 23.0 mph37.0 kmh 29.91 in1012.9 mb 0.00 in0.0 mm 0.00 in0.0 mm 0.00 in0.0 mm
09:48 PM 37.0°F2.8°C 20.7°F-6.3°C 52% 11.0 mph SW17.7 kmh SW 23.0 mph37.0 kmh 29.91 in1012.9 mb 0.00 in0.0 mm 0.00 in0.0 mm 0.00 in0.0 mm
09:53 PM 37.1°F2.8°C 20.8°F-6.2°C 52% 12.0 mph SW19.3 kmh SW 23.0 mph37.0 kmh 29.91 in1012.9 mb 0.00 in0.0 mm 0.00 in0.0 mm 0.00 in0.0 mm
09:58 PM 37.1°F2.8°C 20.8°F-6.2°C 52% 14.0 mph WSW22.5 kmh WSW 20.0 mph32.2 kmh 29.91 in1012.9 mb 0.00 in0.0 mm 0.00 in0.0 mm 0.00 in0.0 mm
10:03 PM 37.1°F2.8°C 20.8°F-6.2°C 52% 18.0 mph S29.0 kmh S 22.0 mph35.4 kmh 29.90 in1012.5 mb 0.00 in0.0 mm 0.00 in0.0 mm 0.00 in0.0 mm
10:08 PM 37.0°F2.8°C 20.7°F-6.3°C 52% 12.0 mph SW19.3 kmh SW 22.0 mph35.4 kmh 29.89 in1012.2 mb 0.00 in0.0 mm 0.00 in0.0 mm 0.00 in0.0 mm
10:13 PM 37.0°F2.8°C 20.7°F-6.3°C 52% 23.0 mph SSW37.0 kmh SSW 23.0 mph37.0 kmh 29.90 in1012.5 mb 0.00 in0.0 mm 0.00 in0.0 mm 0.00 in0.0 mm
10:18 PM 36.9°F2.7°C 20.6°F-6.3°C 52% 14.0 mph S22.5 kmh S 23.0 mph37.0 kmh 29.89 in1012.2 mb 0.00 in0.0 mm 0.00 in0.0 mm 0.00 in0.0 mm
10:23 PM 36.9°F2.7°C 20.6°F-6.3°C 52% 11.0 mph SW17.7 kmh SW 23.0 mph37.0 kmh 29.89 in1012.2 mb 0.00 in0.0 mm 0.00 in0.0 mm 0.00 in0.0 mm
10:28 PM 37.0°F2.8°C 20.7°F-6.3°C 52% 16.0 mph SW25.7 kmh SW 23.0 mph37.0 kmh 29.89 in1012.2 mb 0.00 in0.0 mm 0.00 in0.0 mm 0.00 in0.0 mm
10:33 PM 37.0°F2.8°C 20.7°F-6.3°C 52% 20.0 mph SW32.2 kmh SW 23.0 mph37.0 kmh 29.89 in1012.2 mb 0.00 in0.0 mm 0.00 in0.0 mm 0.00 in0.0 mm
10:38 PM 37.0°F2.8°C 20.7°F-6.3°C 52% 15.0 mph SSW24.1 kmh SSW 22.0 mph35.4 kmh 29.89 in1012.2 mb 0.00 in0.0 mm 0.00 in0.0 mm 0.00 in0.0 mm
10:43 PM 37.1°F2.8°C 21.2°F-6.0°C 53% 22.0 mph SW35.4 kmh SW 22.0 mph35.4 kmh 29.89 in1012.2 mb 0.00 in0.0 mm 0.00 in0.0 mm 0.00 in0.0 mm
10:48 PM 37.1°F2.8°C 21.2°F-6.0°C 53% 16.0 mph SW25.7 kmh SW 22.0 mph35.4 kmh 29.89 in1012.2 mb 0.00 in0.0 mm 0.00 in0.0 mm 0.00 in0.0 mm
10:53 PM 37.1°F2.8°C 21.2°F-6.0°C 53% 10.0 mph SW16.1 kmh SW 22.0 mph35.4 kmh 29.89 in1012.2 mb 0.00 in0.0 mm 0.00 in0.0 mm 0.00 in0.0 mm
10:58 PM 37.1°F2.8°C 21.7°F-5.7°C 54% 13.0 mph S20.9 kmh S 24.0 mph38.6 kmh 29.89 in1012.2 mb 0.00 in0.0 mm 0.00 in0.0 mm 0.00 in0.0 mm
11:03 PM 37.2°F2.9°C 21.8°F-5.7°C 54% 20.0 mph SW32.2 kmh SW 24.0 mph38.6 kmh 29.89 in1012.2 mb 0.00 in0.0 mm 0.00 in0.0 mm 0.00 in0.0 mm
11:08 PM 37.3°F2.9°C 21.9°F-5.6°C 54% 15.0 mph SW24.1 kmh SW 24.0 mph38.6 kmh 29.88 in1011.9 mb 0.00 in0.0 mm 0.00 in0.0 mm 0.00 in0.0 mm
11:13 PM 37.4°F3.0°C 22.4°F-5.3°C 55% 23.0 mph SW37.0 kmh SW 24.0 mph38.6 kmh 29.88 in1011.9 mb 0.00 in0.0 mm 0.00 in0.0 mm 0.00 in0.0 mm
11:18 PM 37.6°F3.1°C 22.6°F-5.2°C 55% 13.0 mph SW20.9 kmh SW 25.0 mph40.2 kmh 29.88 in1011.9 mb 0.00 in0.0 mm 0.00 in0.0 mm 0.00 in0.0 mm
11:23 PM 37.7°F3.2°C 22.7°F-5.2°C 55% 15.0 mph SW24.1 kmh SW 25.0 mph40.2 kmh 29.88 in1011.9 mb 0.00 in0.0 mm 0.00 in0.0 mm 0.00 in0.0 mm
11:28 PM 37.8°F3.2°C 23.2°F-4.9°C 56% 12.0 mph SW19.3 kmh SW 25.0 mph40.2 kmh 29.88 in1011.9 mb 0.00 in0.0 mm 0.00 in0.0 mm 0.00 in0.0 mm
11:33 PM 37.9°F3.3°C 23.3°F-4.8°C 56% 18.0 mph SW29.0 kmh SW 25.0 mph40.2 kmh 29.89 in1012.2 mb 0.00 in0.0 mm 0.00 in0.0 mm 0.00 in0.0 mm
11:38 PM 37.9°F3.3°C 23.3°F-4.8°C 56% 18.0 mph SW29.0 kmh SW 27.0 mph43.5 kmh 29.89 in1012.2 mb 0.00 in0.0 mm 0.00 in0.0 mm 0.00 in0.0 mm
11:43 PM 37.9°F3.3°C 23.3°F-4.8°C 56% 13.0 mph SW20.9 kmh SW 27.0 mph43.5 kmh 29.88 in1011.9 mb 0.00 in0.0 mm 0.00 in0.0 mm 0.00 in0.0 mm
11:48 PM 38.0°F3.3°C 23.8°F-4.6°C 57% 20.0 mph SW32.2 kmh SW 27.0 mph43.5 kmh 29.88 in1011.9 mb 0.00 in0.0 mm 0.00 in0.0 mm 0.00 in0.0 mm
11:53 PM 38.0°F3.3°C 23.8°F-4.6°C 57% 17.0 mph SW27.4 kmh SW 27.0 mph43.5 kmh 29.87 in1011.5 mb 0.00 in0.0 mm 0.00 in0.0 mm 0.00 in0.0 mm
11:58 PM 38.1°F3.4°C 23.9°F-4.5°C 57% 18.0 mph SW29.0 kmh SW 24.0 mph38.6 kmh 29.87 in1011.5 mb 0.00 in0.0 mm 0.00 in0.0 mm 0.00 in0.0 mm